createdAt,value
2023-02-11T00:00:04.693Z,49.4
2023-02-11T00:02:09.719Z,27.7
2023-02-11T00:04:11.664Z,37.9
2023-02-11T00:06:13.653Z,54.5
2023-02-11T00:08:15.607Z,46.8
2023-02-11T00:10:17.561Z,37.3
2023-02-11T00:12:19.650Z,32.1
2023-02-11T00:14:21.504Z,26.9
2023-02-11T00:16:26.617Z,30.1
2023-02-11T00:18:28.474Z,55.2
2023-02-11T00:20:30.422Z,61.7
2023-02-11T00:21:32.957Z,37.1
2023-02-11T00:23:34.899Z,40.7
2023-02-11T00:25:36.865Z,40.5
2023-02-11T00:27:38.836Z,36.7
2023-02-11T00:33:47.746Z,30.3
2023-02-11T00:35:50.072Z,41.7
2023-02-11T00:37:51.673Z,41.5
2023-02-11T00:46:02.660Z,36.6
2023-02-11T00:48:04.545Z,30.9
2023-02-11T00:52:08.511Z,28.4
2023-02-11T00:56:12.556Z,41.8
2023-02-11T00:58:17.547Z,30.2
2023-02-11T01:00:19.516Z,33.2
2023-02-11T01:02:21.472Z,15.4
2023-02-11T01:08:27.360Z,57.1
2023-02-11T01:10:29.324Z,65.9
2023-02-11T01:17:40.779Z,14.2
2023-02-11T01:21:44.686Z,22.7
2023-02-11T01:23:46.681Z,37.7
2023-02-11T01:25:52.023Z,29.9
2023-02-11T01:27:53.652Z,45.4
2023-02-11T01:29:55.629Z,49.4
2023-02-11T01:31:57.640Z,30.2
2023-02-11T01:33:59.528Z,18.7
2023-02-11T01:36:01.580Z,33.8
2023-02-11T01:40:08.491Z,62.8
2023-02-11T01:42:10.452Z,28.8
2023-02-11T01:46:14.527Z,49.1
2023-02-11T01:48:16.370Z,31.6
2023-02-11T01:50:18.432Z,37.4
2023-02-11T01:55:25.634Z,57.8
2023-02-11T01:56:27.523Z,36.3
2023-02-11T01:58:29.312Z,53.7
2023-02-11T02:00:31.287Z,32.7
2023-02-11T02:02:33.283Z,48.4
2023-02-11T02:04:35.328Z,48.1
2023-02-11T02:06:37.150Z,33.8
2023-02-11T02:08:42.190Z,35.2
2023-02-11T02:10:44.132Z,55.2
2023-02-11T02:15:02.792Z,54.5
2023-02-11T02:17:04.774Z,38.9
2023-02-11T02:19:06.721Z,74.4
2023-02-11T02:21:11.736Z,45.9
2023-02-11T02:23:13.695Z,49.2
2023-02-11T02:25:15.666Z,50
2023-02-11T02:27:17.818Z,36.5
2023-02-11T02:33:23.706Z,39.9
2023-02-11T02:41:34.604Z,32.5
2023-02-11T02:45:38.520Z,34.2
2023-02-11T02:47:40.456Z,47.8
2023-02-11T02:53:49.404Z,28.7
2023-02-11T02:55:51.700Z,36.3
2023-02-11T03:04:02.335Z,50.1
2023-02-11T03:08:06.160Z,49.4
2023-02-11T03:09:11.391Z,36.1
2023-02-11T03:11:10.640Z,49.8
2023-02-11T03:17:19.550Z,45.2
2023-02-11T03:19:21.520Z,37.4
2023-02-11T03:21:23.478Z,28.9
2023-02-11T03:23:25.438Z,62.6
2023-02-11T03:25:27.391Z,43.6
2023-02-11T03:27:29.362Z,32
2023-02-11T03:29:31.321Z,31.5
2023-02-11T03:35:40.275Z,46.3
2023-02-11T03:37:42.221Z,33.3
2023-02-11T03:39:44.194Z,33.4
2023-02-11T03:41:46.152Z,59.3
2023-02-11T03:43:48.104Z,49
2023-02-11T03:45:53.590Z,28.9
2023-02-11T03:47:55.096Z,32.6
2023-02-11T03:49:57.048Z,41.9
2023-02-11T03:51:59.004Z,48
2023-02-11T03:54:00.961Z,43.3
2023-02-11T03:56:02.968Z,47.5
2023-02-11T03:58:04.893Z,33.1
2023-02-11T04:00:09.910Z,29.8
2023-02-11T04:02:11.888Z,51.5
2023-02-11T04:09:20.275Z,49.2
2023-02-11T04:11:22.234Z,39.8
2023-02-11T04:13:27.242Z,47
2023-02-11T04:15:29.198Z,30.1
2023-02-11T04:17:31.173Z,58.9
2023-02-11T04:19:33.120Z,33.9
2023-02-11T04:21:35.083Z,55.5
2023-02-11T04:23:37.070Z,65.6
2023-02-11T04:25:39.020Z,38.2
2023-02-11T04:33:49.914Z,29.4
2023-02-11T04:35:52.071Z,68.4
2023-02-11T04:37:53.867Z,63.5
2023-02-11T04:39:55.811Z,46.6
2023-02-11T04:42:00.867Z,60.2
2023-02-11T04:44:02.809Z,79.6
2023-02-11T04:46:04.798Z,43.8
2023-02-11T04:48:53.890Z,42.5
2023-02-11T04:50:08.681Z,41.9
2023-02-11T04:52:10.671Z,54.1
2023-02-11T04:56:17.635Z,44.5
2023-02-11T04:58:19.578Z,57.9
2023-02-11T05:00:21.560Z,67
2023-02-11T05:01:24.099Z,37.6
2023-02-11T05:03:26.046Z,68.2
2023-02-11T05:05:27.963Z,49.9
2023-02-11T05:07:29.929Z,41.4
2023-02-11T05:11:36.925Z,56.4
2023-02-11T05:13:38.869Z,62.2
2023-02-11T05:15:40.830Z,74.4
2023-02-11T05:17:42.789Z,68.2
2023-02-11T05:19:44.749Z,50.5
2023-02-11T05:23:51.728Z,69
2023-02-11T05:25:53.684Z,60.6
2023-02-11T05:27:55.666Z,68.5
2023-02-11T05:29:57.620Z,65.5
2023-02-11T05:32:01.095Z,57.4
2023-02-11T05:34:03.029Z,76.6
2023-02-11T05:36:04.989Z,83.3
2023-02-11T05:38:09.975Z,69.4
2023-02-11T05:40:11.951Z,52.9
2023-02-11T05:42:13.914Z,62.5
2023-02-11T05:44:15.925Z,85.8
2023-02-11T05:46:17.874Z,67.1
2023-02-11T05:48:19.777Z,78
2023-02-11T05:50:21.743Z,78
2023-02-11T05:52:26.755Z,67
2023-02-11T05:54:28.721Z,73.2
2023-02-11T05:56:30.663Z,80.7
2023-02-11T05:58:49.700Z,-1
2023-02-11T06:00:56.779Z,57.7
2023-02-11T06:02:58.910Z,42.3
2023-02-11T06:05:03.752Z,69.5
2023-02-11T06:07:05.720Z,78.5
2023-02-11T06:09:07.685Z,61
2023-02-11T06:11:09.652Z,64.6
2023-02-11T06:13:11.611Z,62.2
2023-02-11T06:15:13.576Z,72.7
2023-02-11T06:17:22.302Z,102.4
2023-02-11T06:19:20.543Z,83.6
2023-02-11T06:21:23.924Z,69.7
2023-02-11T06:23:24.512Z,82.2
2023-02-11T06:25:26.438Z,72.1
2023-02-11T06:27:35.211Z,72.3
2023-02-11T06:29:30.344Z,74.8
2023-02-11T06:31:32.391Z,91.6
2023-02-11T06:35:39.340Z,70.2
2023-02-11T06:37:41.280Z,79.8
2023-02-11T06:39:43.239Z,77.4
2023-02-11T06:41:45.193Z,72.6
2023-02-11T06:43:47.154Z,71.6
2023-02-11T06:45:49.583Z,80.6
2023-02-11T06:47:54.138Z,71.2
2023-02-11T06:49:56.104Z,84.4
2023-02-11T06:51:58.057Z,70.6
2023-02-11T06:53:00.569Z,63.8
2023-02-11T07:01:11.457Z,85.3
2023-02-11T07:03:13.538Z,71.2
2023-02-11T07:05:15.400Z,77.5
2023-02-11T07:07:17.358Z,75.7
2023-02-11T07:09:19.326Z,68
2023-02-11T07:11:21.287Z,75.7
2023-02-11T07:13:23.292Z,84
2023-02-11T07:15:28.286Z,81
2023-02-11T07:17:30.272Z,94.7
2023-02-11T07:19:32.232Z,109.6
2023-02-11T07:21:34.203Z,85.1
2023-02-11T07:23:36.159Z,89.4
2023-02-11T07:25:38.132Z,90.7
2023-02-11T07:27:40.092Z,76.3
2023-02-11T07:29:45.088Z,107.2
2023-02-11T07:31:47.254Z,79
2023-02-11T07:33:49.024Z,87.4
2023-02-11T07:35:51.309Z,83.8
2023-02-11T07:37:52.933Z,75.5
2023-02-11T07:39:54.906Z,86.2
2023-02-11T07:41:56.899Z,73.5
2023-02-11T07:44:01.876Z,88.2
2023-02-11T07:46:03.862Z,67.9
2023-02-11T07:48:05.814Z,98.2
2023-02-11T07:49:08.318Z,95.5
2023-02-11T07:51:10.260Z,85.5
2023-02-11T07:53:12.238Z,88.1
2023-02-11T07:55:14.188Z,81.3
2023-02-11T07:57:19.262Z,73.6
2023-02-11T07:59:21.171Z,85.9
2023-02-11T08:01:23.212Z,74.8
2023-02-11T08:03:25.105Z,77.1
2023-02-11T08:05:27.074Z,98.5
2023-02-11T08:07:29.014Z,80.1
2023-02-11T08:09:33.448Z,59.1
2023-02-11T08:11:36.000Z,90.7
2023-02-11T08:13:37.975Z,90.6
2023-02-11T08:15:39.919Z,92.9
2023-02-11T08:17:41.867Z,70.7
2023-02-11T08:19:43.861Z,89.9
2023-02-11T08:25:53.572Z,75.8
2023-02-11T08:31:59.569Z,103.2
2023-02-11T08:34:01.440Z,84.6
2023-02-11T08:36:03.395Z,105.7
2023-02-11T08:38:05.363Z,68.9
2023-02-11T08:40:10.405Z,108
2023-02-11T08:42:12.367Z,102.5
2023-02-11T08:44:14.322Z,86.4
2023-02-11T08:45:16.849Z,76.9
2023-02-11T08:47:18.811Z,66.6
2023-02-11T08:49:20.799Z,80.6
2023-02-11T08:51:22.751Z,77.2
2023-02-11T08:53:27.770Z,87.5
2023-02-11T08:55:29.762Z,93.9
2023-02-11T08:57:31.751Z,82
2023-02-11T08:59:33.719Z,77.5
2023-02-11T09:01:35.792Z,81.5
2023-02-11T09:03:37.809Z,71.3
2023-02-11T09:05:39.645Z,91.9
2023-02-11T09:07:44.660Z,107.3
2023-02-11T09:09:46.635Z,120.8
2023-02-11T09:13:53.325Z,78.2
2023-02-11T09:15:52.562Z,83.6
2023-02-11T09:17:54.531Z,74.4
2023-02-11T09:19:56.519Z,70.3
2023-02-11T09:22:01.521Z,67.3
2023-02-11T09:24:03.505Z,65.9
2023-02-11T09:26:06.914Z,79.2
2023-02-11T09:28:07.853Z,79.3
2023-02-11T09:30:09.790Z,76.4
2023-02-11T09:32:11.984Z,68.5
2023-02-11T09:34:13.748Z,69.9
2023-02-11T09:36:18.770Z,79.8
2023-02-11T09:38:20.757Z,85.8
2023-02-11T09:40:22.777Z,68.5
2023-02-11T09:42:45.554Z,70.9
2023-02-11T09:44:47.521Z,78.6
2023-02-11T09:46:49.492Z,54.9
2023-02-11T09:48:54.530Z,80.8
2023-02-11T09:50:56.510Z,68.7
2023-02-11T09:55:00.514Z,77
2023-02-11T09:57:02.502Z,75.4
2023-02-11T09:59:04.461Z,69.9
2023-02-11T10:03:12.140Z,74.4
2023-02-11T10:05:14.097Z,67.9
2023-02-11T10:07:16.076Z,81.6
2023-02-11T10:09:18.062Z,66
2023-02-11T10:11:31.014Z,66.4
2023-02-11T10:13:22.401Z,62.9
2023-02-11T10:15:24.384Z,74
2023-02-11T10:17:44.241Z,56.4
2023-02-11T10:19:31.371Z,64.8
2023-02-11T10:21:33.395Z,56.6
2023-02-11T10:23:35.337Z,61
2023-02-11T10:25:37.389Z,56.1
2023-02-11T10:27:39.362Z,65.7
2023-02-11T10:29:41.321Z,53
2023-02-11T10:31:46.381Z,57.6
2023-02-11T10:33:48.357Z,50.7
2023-02-11T10:35:50.320Z,50.7
2023-02-11T10:38:54.825Z,50.7
2023-02-11T10:40:56.817Z,49.1
2023-02-11T10:42:58.835Z,48.2
2023-02-11T10:45:08.816Z,55.9
2023-02-11T10:47:05.828Z,63
2023-02-11T10:49:07.812Z,50.4
2023-02-11T10:51:09.815Z,53.2
2023-02-11T10:53:11.765Z,52.6
2023-02-11T10:55:13.756Z,51.2
2023-02-11T10:57:15.730Z,41.9
2023-02-11T11:05:26.744Z,34.5
2023-02-11T11:11:32.686Z,45.9
2023-02-11T11:13:37.738Z,35.2
2023-02-11T11:15:39.720Z,40.3
2023-02-11T11:21:45.694Z,39
2023-02-11T11:23:49.187Z,41.2
2023-02-11T11:25:51.124Z,40.8
2023-02-11T11:27:56.193Z,50.4
2023-02-11T11:29:58.159Z,30.3
2023-02-11T11:32:00.204Z,36
2023-02-11T11:33:02.667Z,33.9
2023-02-11T11:35:04.655Z,30
2023-02-11T11:37:06.658Z,40.3
2023-02-11T11:39:08.627Z,38.3
2023-02-11T11:41:13.676Z,35.3
2023-02-11T11:43:15.663Z,34.1
2023-02-11T11:45:17.656Z,33
2023-02-11T11:47:19.653Z,39.6
2023-02-11T11:51:23.620Z,31.9
2023-02-11T11:53:25.607Z,27.1
2023-02-11T12:01:36.679Z,34
2023-02-11T12:03:38.600Z,31.2
2023-02-11T12:05:40.637Z,36.4
2023-02-11T12:09:47.702Z,36.1
2023-02-11T12:11:49.702Z,28.9
2023-02-11T12:13:51.665Z,33.6
2023-02-11T12:15:53.645Z,41.3
2023-02-11T12:17:55.648Z,46.9
2023-02-11T12:19:57.653Z,32.4
2023-02-11T12:21:59.627Z,28.8
2023-02-11T12:24:04.682Z,22.4
2023-02-11T12:26:06.661Z,26.1
2023-02-11T12:28:08.698Z,31.4
2023-02-11T12:29:11.190Z,34
2023-02-11T12:31:13.336Z,25.6
2023-02-11T12:33:15.160Z,23.3
2023-02-11T12:35:17.180Z,24.2
2023-02-11T12:37:22.235Z,21.9
2023-02-11T12:41:26.252Z,27.5
2023-02-11T12:43:28.199Z,32.6
2023-02-11T12:45:30.269Z,32.7
2023-02-11T12:47:32.184Z,29.8
2023-02-11T12:51:39.244Z,37.4
2023-02-11T12:53:41.211Z,23.5
2023-02-11T12:56:47.085Z,19.5
2023-02-11T12:57:45.211Z,39.5
2023-02-11T12:59:47.189Z,31.3
2023-02-11T13:01:49.196Z,22.7
2023-02-11T13:07:58.254Z,31.5
2023-02-11T13:10:00.217Z,25.7
2023-02-11T13:12:02.203Z,32.6
2023-02-11T13:14:04.201Z,28.9
2023-02-11T13:16:06.232Z,22.8
2023-02-11T13:18:08.174Z,23.6
2023-02-11T13:20:13.258Z,26.5
2023-02-11T13:22:15.216Z,24.2
2023-02-11T13:24:17.198Z,23
2023-02-11T13:26:33.947Z,25.2
2023-02-11T13:28:36.200Z,24.9
2023-02-11T13:30:37.974Z,17
2023-02-11T13:32:42.976Z,20.6
2023-02-11T13:34:44.972Z,30.9
2023-02-11T13:36:46.971Z,19.1
2023-02-11T13:38:48.977Z,14.9
2023-02-11T13:40:51.180Z,36.4
2023-02-11T13:42:52.946Z,24.3
2023-02-11T13:44:54.943Z,21.2
2023-02-11T13:47:00.011Z,15.3
2023-02-11T13:49:02.043Z,26.5
2023-02-11T13:51:04.005Z,9.3
2023-02-11T13:53:05.988Z,17.6
2023-02-11T13:55:07.973Z,13.8
2023-02-11T13:57:09.973Z,23.3
2023-02-11T13:59:11.942Z,11.2
2023-02-11T14:01:17.790Z,17.8
2023-02-11T14:03:19.737Z,11.7
2023-02-11T14:05:21.703Z,13.6
2023-02-11T14:07:23.693Z,17.2
2023-02-11T14:09:26.164Z,19.2
2023-02-11T14:11:28.161Z,7.6
2023-02-11T14:13:30.143Z,15.5
2023-02-11T14:15:35.209Z,12.5
2023-02-11T14:17:37.205Z,15
2023-02-11T14:19:39.196Z,17.1
2023-02-11T14:20:41.706Z,12.3
2023-02-11T14:26:47.675Z,10.9
2023-02-11T14:28:52.766Z,19.8
2023-02-11T14:32:56.770Z,13.2
2023-02-11T14:34:58.717Z,9.3
2023-02-11T14:37:00.726Z,8.4
2023-02-11T14:39:02.800Z,16.4
2023-02-11T14:41:04.718Z,20.8
2023-02-11T14:43:09.771Z,9.8
2023-02-11T14:45:11.738Z,11.3
2023-02-11T14:47:13.742Z,13.2
2023-02-11T14:49:15.749Z,9.5
2023-02-11T14:51:17.725Z,9.2
2023-02-11T14:53:19.735Z,8.4
2023-02-11T14:57:26.749Z,12.7
2023-02-11T14:59:28.748Z,9.5
2023-02-11T15:01:30.780Z,8.1
2023-02-11T15:03:32.738Z,13.5
2023-02-11T15:05:34.721Z,7.4
2023-02-11T15:07:36.691Z,9.2
2023-02-11T15:09:38.695Z,9.9
2023-02-11T15:11:43.800Z,8.5
2023-02-11T15:13:45.732Z,13.1
2023-02-11T15:15:47.759Z,12.2
2023-02-11T15:18:52.268Z,8.2
2023-02-11T15:20:54.531Z,4.9
2023-02-11T15:22:56.236Z,10.9
2023-02-11T15:25:01.293Z,9.2
2023-02-11T15:27:03.290Z,9.5
2023-02-11T15:29:05.273Z,13.2
2023-02-11T15:31:07.330Z,14.9
2023-02-11T15:33:09.243Z,10.6
2023-02-11T15:35:11.253Z,12.5
2023-02-11T15:37:13.255Z,13
2023-02-11T15:39:18.299Z,14.5
2023-02-11T15:41:20.277Z,8.2
2023-02-11T15:43:22.276Z,11.9
2023-02-11T15:47:26.287Z,12.4
2023-02-11T15:49:28.270Z,12.8
2023-02-11T15:51:30.247Z,10.8
2023-02-11T15:53:35.298Z,19.6
2023-02-11T15:55:37.313Z,12.8
2023-02-11T15:57:39.298Z,9.9
2023-02-11T15:59:41.300Z,15.4
2023-02-11T16:03:45.276Z,11.5
2023-02-11T16:05:47.266Z,36.1
2023-02-11T16:07:52.317Z,17.8
2023-02-11T16:11:56.293Z,14.8
2023-02-11T16:12:58.837Z,13.8
2023-02-11T16:15:00.878Z,14.5
2023-02-11T16:17:02.812Z,9.4
2023-02-11T16:19:06.159Z,14.7
2023-02-11T16:21:09.862Z,21.2
2023-02-11T16:23:11.868Z,11.8
2023-02-11T16:25:13.830Z,24
2023-02-11T16:27:15.855Z,20.8
2023-02-11T16:29:17.816Z,9.5
2023-02-11T16:31:19.909Z,11.6
2023-02-11T16:33:21.785Z,12.5
2023-02-11T16:35:26.813Z,24.4
2023-02-11T16:37:28.847Z,12.5
2023-02-11T16:39:30.800Z,15.3
2023-02-11T16:41:32.789Z,14.4
2023-02-11T16:43:34.795Z,24.3
2023-02-11T16:45:36.784Z,16.9
2023-02-11T16:47:38.772Z,10.5
2023-02-11T16:49:43.836Z,17.1
2023-02-11T16:51:45.813Z,22.2
2023-02-11T16:53:47.804Z,18.8
2023-02-11T17:04:01.086Z,19.8
2023-02-11T17:08:05.098Z,26.6
2023-02-11T17:12:29.853Z,21.4
2023-02-11T17:14:33.378Z,28.3
2023-02-11T17:16:38.379Z,16.1
2023-02-11T17:24:46.340Z,22.1
2023-02-11T17:30:55.455Z,24.2
2023-02-11T17:32:57.366Z,21.4
2023-02-11T17:41:05.337Z,28.7
2023-02-11T17:49:16.361Z,32.3
2023-02-11T17:59:29.370Z,29.5
2023-02-11T18:01:31.438Z,34.4
2023-02-11T18:03:33.353Z,26.4
2023-02-11T18:04:35.948Z,25.5
2023-02-11T18:06:37.882Z,39.8
2023-02-11T18:08:39.848Z,22.1
2023-02-11T18:10:41.921Z,27.2
2023-02-11T18:12:46.865Z,21.6
2023-02-11T18:14:48.860Z,25
2023-02-11T18:16:50.924Z,25.6
2023-02-11T18:22:56.805Z,30.4
2023-02-11T18:24:58.797Z,22.9
2023-02-11T18:29:05.820Z,20.7
2023-02-11T18:31:07.844Z,26.6
2023-02-11T18:33:09.807Z,41.7
2023-02-11T18:47:26.776Z,26.9
2023-02-11T18:51:30.763Z,29.7
2023-02-11T18:53:32.733Z,25.6
2023-02-11T18:55:37.805Z,32.4
2023-02-11T18:57:39.770Z,24.5
2023-02-11T18:59:41.750Z,32.5
2023-02-11T19:02:46.269Z,34.5
2023-02-11T19:04:48.368Z,30.1
2023-02-11T19:06:50.233Z,32.2
2023-02-11T19:10:58.182Z,25
2023-02-11T19:13:00.169Z,28.8
2023-02-11T19:19:06.113Z,38.7
2023-02-11T19:21:08.097Z,44.5
2023-02-11T19:25:15.117Z,28.2
2023-02-11T19:27:17.119Z,32.1
2023-02-11T19:29:19.115Z,32.1
2023-02-11T19:31:21.186Z,26.4
2023-02-11T19:35:25.061Z,24.7
2023-02-11T19:37:30.091Z,41.2
2023-02-11T19:43:36.030Z,31.5
2023-02-11T19:45:38.021Z,27.6
2023-02-11T19:47:40.022Z,31.4
2023-02-11T19:51:47.005Z,41.2
2023-02-11T19:53:49.006Z,34.1
2023-02-11T19:55:51.364Z,30.8
2023-02-11T19:56:53.505Z,26.4
2023-02-11T19:58:55.485Z,31.3
2023-02-11T20:00:57.453Z,43.4
2023-02-11T20:02:59.527Z,32.2
2023-02-11T20:05:04.492Z,39.6
2023-02-11T20:07:06.605Z,25.4
2023-02-11T20:09:08.435Z,37.4
2023-02-11T20:11:10.421Z,39.4
2023-02-11T20:13:12.414Z,31.7
2023-02-11T20:15:14.394Z,34
2023-02-11T20:17:16.511Z,33
2023-02-11T20:19:21.755Z,43.2
2023-02-11T20:21:23.383Z,44.1
2023-02-11T20:23:25.364Z,31.3
2023-02-11T20:25:27.373Z,39.5
2023-02-11T20:27:29.360Z,49.9
2023-02-11T20:33:38.329Z,35.9
2023-02-11T20:35:40.317Z,38.1
2023-02-11T20:37:44.085Z,34.3
2023-02-11T20:41:46.431Z,29.2
2023-02-11T20:43:48.206Z,36.9
2023-02-11T20:45:50.616Z,24.6
2023-02-11T20:47:55.223Z,39.6
2023-02-11T20:54:22.037Z,32.5
2023-02-11T20:56:24.024Z,36.6
2023-02-11T20:58:25.996Z,39.6
2023-02-11T21:00:31.067Z,48.3
2023-02-11T21:02:33.003Z,47.7
2023-02-11T21:04:34.970Z,37.3
2023-02-11T21:06:36.963Z,42.7
2023-02-11T21:08:38.939Z,45.6
2023-02-11T21:14:47.942Z,39.7
2023-02-11T21:16:49.899Z,32.2
2023-02-11T21:18:51.869Z,28.2
2023-02-11T21:20:53.829Z,40.7
2023-02-11T21:22:55.829Z,40.4
2023-02-11T21:24:57.777Z,39.4
2023-02-11T21:26:59.771Z,43.3
2023-02-11T21:29:04.800Z,46.5
2023-02-11T21:31:07.161Z,38.4
2023-02-11T21:33:08.750Z,52.4
2023-02-11T21:35:10.728Z,33.7
2023-02-11T21:37:12.720Z,38.6
2023-02-11T21:39:14.692Z,37.6
2023-02-11T21:41:16.679Z,34.6
2023-02-11T21:45:23.691Z,49.2
2023-02-11T21:47:25.667Z,35.2
2023-02-11T21:48:28.150Z,30.6
2023-02-11T21:50:30.149Z,48.2
2023-02-11T21:52:32.111Z,55.4
2023-02-11T21:56:39.118Z,39.5
2023-02-11T21:58:41.101Z,29.5
2023-02-11T22:00:43.112Z,43.5
2023-02-11T22:02:45.068Z,39
2023-02-11T22:04:47.076Z,37.1
2023-02-11T22:06:49.015Z,46.4
2023-02-11T22:08:51.021Z,40.8
2023-02-11T22:10:56.016Z,48.9
2023-02-11T22:12:57.998Z,39.8
2023-02-11T22:14:59.983Z,36.6
2023-02-11T22:17:01.989Z,45.6
2023-02-11T22:19:03.920Z,44.4
2023-02-11T22:21:05.904Z,38.5
2023-02-11T22:23:07.915Z,48.6
2023-02-11T22:25:31.467Z,39.2
2023-02-11T22:27:14.902Z,44.3
2023-02-11T22:29:16.857Z,41.9
2023-02-11T22:31:19.098Z,38.7
2023-02-11T22:33:20.972Z,45.2
2023-02-11T22:35:22.810Z,39
2023-02-11T22:37:24.787Z,34.8
2023-02-11T22:39:29.809Z,39.9
2023-02-11T22:41:31.778Z,44.9
2023-02-11T22:44:36.292Z,37.6
2023-02-11T22:46:38.288Z,36.8
2023-02-11T22:48:40.226Z,44.6
2023-02-11T22:50:42.177Z,54.3
2023-02-11T22:52:47.205Z,39.5
2023-02-11T22:54:49.182Z,67.2
2023-02-11T23:02:57.140Z,62.5
2023-02-11T23:04:59.064Z,49.9
2023-02-11T23:07:05.586Z,40.7
2023-02-11T23:09:07.593Z,41.6
2023-02-11T23:11:09.540Z,39
2023-02-11T23:13:11.503Z,41.2
2023-02-11T23:15:13.498Z,41.1
2023-02-11T23:17:15.447Z,38
2023-02-11T23:19:17.469Z,45.8
2023-02-11T23:21:22.520Z,36.6
2023-02-11T23:23:24.490Z,40.5
2023-02-11T23:25:26.452Z,37.8
2023-02-11T23:27:28.426Z,41.8
2023-02-11T23:29:30.405Z,32.9
2023-02-11T23:31:32.493Z,51.8
2023-02-11T23:33:34.350Z,39.5
2023-02-11T23:35:39.374Z,37.5
2023-02-11T23:37:41.334Z,39.1
2023-02-11T23:39:43.352Z,34.4
2023-02-11T23:40:45.813Z,38.1
2023-02-11T23:42:47.792Z,36.2
2023-02-11T23:46:51.721Z,43.5
2023-02-11T23:48:56.749Z,46
2023-02-11T23:50:58.726Z,44.5
2023-02-11T23:53:00.682Z,37.4
2023-02-11T23:55:02.652Z,50.6
2023-02-11T23:59:06.593Z,40
